createdAt,value
2022-08-19T00:00:31.917Z,0.00
2022-08-19T00:01:31.898Z,0.00
2022-08-19T00:02:31.916Z,0.00
2022-08-19T00:03:31.888Z,0.00
2022-08-19T00:04:31.971Z,0.00
2022-08-19T00:05:31.859Z,0.00
2022-08-19T00:06:31.851Z,0.00
2022-08-19T00:07:31.839Z,0.00
2022-08-19T00:08:31.849Z,0.00
2022-08-19T00:09:31.815Z,0.00
2022-08-19T00:10:31.817Z,0.00
2022-08-19T00:11:31.817Z,0.00
2022-08-19T00:12:31.830Z,0.00
2022-08-19T00:13:31.771Z,0.00
2022-08-19T00:14:31.772Z,0.00
2022-08-19T00:15:31.742Z,0.00
2022-08-19T00:16:31.751Z,0.00
2022-08-19T00:17:31.761Z,0.00
2022-08-19T00:18:31.734Z,0.00
2022-08-19T00:19:31.705Z,0.00
2022-08-19T00:20:31.713Z,0.00
2022-08-19T00:21:31.703Z,0.00
2022-08-19T00:22:31.692Z,0.00
2022-08-19T00:23:31.665Z,0.00
2022-08-19T00:24:31.664Z,0.00
2022-08-19T00:25:31.644Z,0.00
2022-08-19T00:26:31.656Z,0.00
2022-08-19T00:27:31.625Z,0.00
2022-08-19T00:28:31.605Z,0.00
2022-08-19T00:29:31.616Z,0.00
2022-08-19T00:30:31.589Z,0.00
2022-08-19T00:31:31.577Z,0.00
2022-08-19T00:32:31.567Z,0.00
2022-08-19T00:33:31.548Z,0.00
2022-08-19T00:34:31.627Z,0.00
2022-08-19T00:35:31.530Z,0.00
2022-08-19T00:36:31.527Z,0.00
2022-08-19T00:37:31.508Z,0.00
2022-08-19T00:38:37.324Z,0.00
2022-08-19T00:39:32.516Z,0.00
2022-08-19T00:40:31.480Z,0.00
2022-08-19T00:41:31.468Z,0.00
2022-08-19T00:42:31.460Z,0.00
2022-08-19T00:43:31.443Z,0.00
2022-08-19T00:44:31.500Z,0.00
2022-08-19T00:45:31.432Z,0.00
2022-08-19T00:46:31.414Z,0.00
2022-08-19T00:47:31.393Z,0.00
2022-08-19T00:48:31.392Z,0.00
2022-08-19T00:49:31.392Z,0.00
2022-08-19T00:50:31.372Z,0.00
2022-08-19T00:51:31.352Z,0.00
2022-08-19T00:52:31.363Z,0.00
2022-08-19T00:53:31.335Z,0.00
2022-08-19T00:54:31.409Z,0.00
2022-08-19T00:55:31.324Z,0.00
2022-08-19T00:56:31.304Z,0.00
2022-08-19T00:57:31.305Z,0.00
2022-08-19T00:58:31.285Z,0.00
2022-08-19T01:00:00.881Z,0.00
2022-08-19T01:00:32.265Z,0.00
2022-08-19T01:01:31.269Z,0.00
2022-08-19T01:02:31.277Z,0.00
2022-08-19T01:03:56.604Z,0.00
2022-08-19T01:04:32.218Z,0.00
2022-08-19T01:05:31.210Z,0.00
2022-08-19T01:06:31.219Z,0.00
2022-08-19T01:07:35.758Z,0.00
2022-08-19T01:08:32.203Z,0.00
2022-08-19T01:09:31.167Z,0.00
2022-08-19T01:10:36.103Z,0.00
2022-08-19T01:11:32.141Z,0.00
2022-08-19T01:12:31.125Z,0.00
2022-08-19T01:13:49.483Z,0.00
2022-08-19T01:14:32.108Z,0.00
2022-08-19T01:15:31.098Z,0.00
2022-08-19T01:16:31.087Z,0.00
2022-08-19T01:17:31.068Z,0.00
2022-08-19T01:18:31.079Z,0.00
2022-08-19T01:19:31.041Z,0.00
2022-08-19T01:20:32.080Z,0.00
2022-08-19T01:21:31.030Z,0.00
2022-08-19T01:22:33.659Z,0.00
2022-08-19T01:23:31.000Z,0.00
2022-08-19T01:24:30.990Z,0.00
2022-08-19T01:25:31.001Z,0.00
2022-08-19T01:26:31.336Z,0.00
2022-08-19T01:27:35.311Z,0.00
2022-08-19T01:28:39.968Z,0.00
2022-08-19T01:29:31.950Z,0.00
2022-08-19T01:30:30.950Z,0.00
2022-08-19T01:31:30.943Z,0.00
2022-08-19T01:32:32.468Z,0.00
2022-08-19T01:33:30.900Z,0.00
2022-08-19T01:34:30.884Z,0.00
2022-08-19T01:35:30.974Z,0.00
2022-08-19T01:36:30.865Z,0.00
2022-08-19T01:37:30.865Z,0.00
2022-08-19T01:38:30.856Z,0.00
2022-08-19T01:39:30.865Z,0.00
2022-08-19T01:40:30.825Z,0.00
2022-08-19T01:41:30.806Z,0.00
2022-08-19T01:42:30.831Z,0.00
2022-08-19T01:43:30.807Z,0.00
2022-08-19T01:44:30.766Z,0.00
2022-08-19T01:45:30.786Z,0.00
2022-08-19T01:46:30.847Z,0.00
2022-08-19T01:47:30.748Z,0.00
2022-08-19T01:48:30.758Z,0.00
2022-08-19T01:49:30.737Z,0.00
2022-08-19T01:50:30.718Z,0.00
2022-08-19T01:51:30.698Z,0.00
2022-08-19T01:52:31.686Z,0.00
2022-08-19T01:53:30.702Z,0.00
2022-08-19T01:54:30.680Z,0.00
2022-08-19T01:55:30.670Z,0.00
2022-08-19T01:56:30.652Z,0.00
2022-08-19T01:57:30.660Z,0.00
2022-08-19T01:58:30.638Z,0.00
2022-08-19T01:59:30.642Z,0.00
2022-08-19T02:00:30.592Z,0.00
2022-08-19T02:01:31.297Z,0.00
2022-08-19T02:02:30.580Z,0.00
2022-08-19T02:03:30.574Z,0.00
2022-08-19T02:04:30.583Z,0.00
2022-08-19T02:05:30.552Z,0.00
2022-08-19T02:06:30.544Z,0.00
2022-08-19T02:07:30.543Z,0.00
2022-08-19T02:08:30.552Z,0.00
2022-08-19T02:09:30.514Z,0.00
2022-08-19T02:10:30.491Z,0.00
2022-08-19T02:11:30.494Z,0.00
2022-08-19T02:12:30.476Z,0.00
2022-08-19T02:13:30.475Z,0.00
2022-08-19T02:14:30.468Z,0.00
2022-08-19T02:15:30.437Z,0.00
2022-08-19T02:16:30.440Z,0.00
2022-08-19T02:17:30.432Z,0.00
2022-08-19T02:18:30.428Z,0.00
2022-08-19T02:19:30.397Z,0.00
2022-08-19T02:20:30.368Z,0.00
2022-08-19T02:21:30.381Z,0.00
2022-08-19T02:22:30.369Z,0.00
2022-08-19T02:23:30.348Z,0.00
2022-08-19T02:24:30.346Z,0.00
2022-08-19T02:25:30.329Z,0.00
2022-08-19T02:26:30.360Z,0.00
2022-08-19T02:27:30.320Z,0.00
2022-08-19T02:28:30.279Z,0.00
2022-08-19T02:29:30.310Z,0.00
2022-08-19T02:30:30.270Z,0.00
2022-08-19T02:31:30.295Z,0.00
2022-08-19T02:32:30.270Z,0.00
2022-08-19T02:33:30.251Z,0.00
2022-08-19T02:34:30.253Z,0.00
2022-08-19T02:35:30.262Z,0.00
2022-08-19T02:36:30.305Z,0.00
2022-08-19T02:37:30.221Z,0.00
2022-08-19T02:38:30.180Z,0.00
2022-08-19T02:39:30.209Z,0.00
2022-08-19T02:40:30.205Z,0.00
2022-08-19T02:41:30.173Z,0.00
2022-08-19T02:42:30.135Z,0.00
2022-08-19T02:43:33.622Z,0.00
2022-08-19T02:44:31.926Z,0.00
2022-08-19T02:45:30.115Z,0.00
2022-08-19T02:46:30.135Z,0.00
2022-08-19T02:47:30.086Z,0.00
2022-08-19T02:48:30.086Z,0.00
2022-08-19T02:49:30.079Z,0.00
2022-08-19T02:50:30.066Z,0.00
2022-08-19T02:51:30.077Z,0.00
2022-08-19T02:52:30.026Z,0.00
2022-08-19T02:53:30.028Z,0.00
2022-08-19T02:54:30.023Z,0.00
2022-08-19T02:55:30.022Z,0.00
2022-08-19T02:56:30.018Z,0.00
2022-08-19T02:57:29.989Z,0.00
2022-08-19T02:58:30.158Z,0.00
2022-08-19T02:59:29.961Z,0.00
2022-08-19T03:00:29.957Z,0.00
2022-08-19T03:01:30.031Z,0.00
2022-08-19T03:02:29.950Z,0.00
2022-08-19T03:03:29.930Z,0.00
2022-08-19T03:04:29.930Z,0.00
2022-08-19T03:05:48.051Z,0.00
2022-08-19T03:06:30.908Z,0.00
2022-08-19T03:07:29.881Z,0.00
2022-08-19T03:08:29.871Z,0.00
2022-08-19T03:09:29.852Z,0.00
2022-08-19T03:10:29.852Z,0.00
2022-08-19T03:11:29.864Z,0.00
2022-08-19T03:12:29.841Z,0.00
2022-08-19T03:13:29.812Z,0.00
2022-08-19T03:14:29.822Z,0.00
2022-08-19T03:15:29.794Z,0.00
2022-08-19T03:16:29.806Z,0.00
2022-08-19T03:17:29.783Z,0.00
2022-08-19T03:18:29.778Z,0.00
2022-08-19T03:19:29.746Z,0.00
2022-08-19T03:20:29.738Z,0.00
2022-08-19T03:21:29.756Z,0.00
2022-08-19T03:22:29.730Z,0.00
2022-08-19T03:23:29.704Z,0.00
2022-08-19T03:24:29.694Z,0.00
2022-08-19T03:25:29.677Z,0.00
2022-08-19T03:26:29.797Z,0.00
2022-08-19T03:27:34.177Z,0.00
2022-08-19T03:28:30.650Z,0.00
2022-08-19T03:29:30.668Z,0.00
2022-08-19T03:30:29.639Z,0.00
2022-08-19T03:31:43.282Z,0.00
2022-08-19T03:32:32.731Z,0.00
2022-08-19T03:33:29.601Z,0.00
2022-08-19T03:34:29.612Z,0.00
2022-08-19T03:35:29.579Z,0.00
2022-08-19T03:36:29.712Z,0.00
2022-08-19T03:37:29.552Z,0.00
2022-08-19T03:38:29.541Z,0.00
2022-08-19T03:39:29.558Z,0.00
2022-08-19T03:40:29.543Z,0.00
2022-08-19T03:41:44.506Z,0.00
2022-08-19T03:42:38.512Z,0.00
2022-08-19T03:43:30.513Z,0.00
2022-08-19T03:44:29.532Z,0.00
2022-08-19T03:45:29.464Z,0.00
2022-08-19T03:46:29.471Z,0.00
2022-08-19T03:47:29.465Z,0.00
2022-08-19T03:48:29.454Z,0.00
2022-08-19T03:49:29.434Z,0.00
2022-08-19T03:50:29.435Z,0.00
2022-08-19T03:51:30.999Z,0.00
2022-08-19T03:52:29.414Z,0.00
2022-08-19T03:53:29.385Z,0.00
2022-08-19T03:54:29.495Z,0.00
2022-08-19T03:55:29.357Z,0.00
2022-08-19T03:56:29.358Z,0.00
2022-08-19T03:57:32.204Z,0.00
2022-08-19T03:58:29.366Z,0.00
2022-08-19T03:59:29.316Z,0.00
2022-08-19T04:00:29.326Z,0.00
2022-08-19T04:01:35.210Z,0.00
2022-08-19T04:02:30.326Z,0.00
2022-08-19T04:03:29.278Z,0.00
2022-08-19T04:04:29.511Z,0.00
2022-08-19T04:05:29.379Z,0.00
2022-08-19T04:06:29.249Z,0.00
2022-08-19T04:07:29.239Z,0.00
2022-08-19T04:08:29.239Z,0.00
2022-08-19T04:09:29.227Z,0.00
2022-08-19T04:10:29.235Z,0.00
2022-08-19T04:11:43.528Z,0.00
2022-08-19T04:12:30.210Z,0.00
2022-08-19T04:13:29.200Z,0.00
2022-08-19T04:14:29.161Z,0.00
2022-08-19T04:15:29.149Z,0.00
2022-08-19T04:16:35.023Z,0.00
2022-08-19T04:17:30.151Z,0.00
2022-08-19T04:18:31.649Z,0.00
2022-08-19T04:19:30.112Z,0.00
2022-08-19T04:20:29.113Z,0.00
2022-08-19T04:21:29.106Z,0.00
2022-08-19T04:22:29.100Z,0.00
2022-08-19T04:23:29.054Z,0.00
2022-08-19T04:24:29.075Z,0.00
2022-08-19T04:25:29.054Z,0.00
2022-08-19T04:26:29.048Z,0.00
2022-08-19T04:27:29.045Z,0.00
2022-08-19T04:28:29.015Z,0.00
2022-08-19T04:29:29.004Z,0.00
2022-08-19T04:30:29.004Z,0.00
2022-08-19T04:31:28.976Z,5.62
2022-08-19T04:32:29.036Z,5.62
2022-08-19T04:33:28.996Z,5.62
2022-08-19T04:34:28.974Z,5.62
2022-08-19T04:35:28.935Z,5.62
2022-08-19T04:36:28.947Z,5.62
2022-08-19T04:37:29.570Z,5.62
2022-08-19T04:38:29.925Z,5.62
2022-08-19T04:39:28.907Z,5.62
2022-08-19T04:40:28.888Z,5.62
2022-08-19T04:41:28.870Z,5.62
2022-08-19T04:42:30.993Z,5.62
2022-08-19T04:43:28.851Z,5.62
2022-08-19T04:44:28.842Z,11.25
2022-08-19T04:45:28.828Z,11.25
2022-08-19T04:46:39.560Z,11.25
2022-08-19T04:47:49.381Z,11.25
2022-08-19T04:48:29.839Z,11.25
2022-08-19T04:49:28.812Z,11.25
2022-08-19T04:50:28.780Z,11.25
2022-08-19T04:51:28.802Z,11.25
2022-08-19T04:52:28.792Z,11.25
2022-08-19T04:53:28.752Z,11.25
2022-08-19T04:54:38.335Z,11.25
2022-08-19T04:55:29.723Z,11.25
2022-08-19T04:56:28.733Z,11.25
2022-08-19T04:57:28.717Z,11.25
2022-08-19T04:58:28.709Z,11.25
2022-08-19T04:59:28.682Z,11.25
2022-08-19T05:00:28.686Z,11.25
2022-08-19T05:01:28.725Z,11.25
2022-08-19T05:02:28.695Z,16.88
2022-08-19T05:03:30.528Z,16.88
2022-08-19T05:04:28.636Z,16.88
2022-08-19T05:05:28.627Z,22.50
2022-08-19T05:06:28.607Z,22.50
2022-08-19T05:07:28.597Z,22.50
2022-08-19T05:08:31.098Z,28.12
2022-08-19T05:09:28.593Z,28.12
2022-08-19T05:10:29.568Z,28.12
2022-08-19T05:11:28.546Z,28.12
2022-08-19T05:12:29.214Z,28.12
2022-08-19T05:13:28.532Z,28.12
2022-08-19T05:14:28.550Z,33.75
2022-08-19T05:15:28.529Z,33.75
2022-08-19T05:16:28.499Z,33.75
2022-08-19T05:17:31.214Z,33.75
2022-08-19T05:18:29.502Z,33.75
2022-08-19T05:19:28.480Z,33.75
2022-08-19T05:20:28.473Z,33.75
2022-08-19T05:21:28.464Z,33.75
2022-08-19T05:22:28.451Z,39.38
2022-08-19T05:23:28.439Z,39.38
2022-08-19T05:24:28.422Z,39.38
2022-08-19T05:25:28.419Z,39.38
2022-08-19T05:26:28.408Z,45.00
2022-08-19T05:27:28.393Z,45.00
2022-08-19T05:28:28.383Z,45.00
2022-08-19T05:29:31.793Z,45.00
2022-08-19T05:30:46.010Z,39.38
2022-08-19T05:31:29.355Z,33.75
2022-08-19T05:32:28.354Z,33.75
2022-08-19T05:33:28.315Z,33.75
2022-08-19T05:34:28.315Z,33.75
2022-08-19T05:35:28.314Z,33.75
2022-08-19T05:36:29.305Z,28.12
2022-08-19T05:37:28.275Z,28.12
2022-08-19T05:38:28.275Z,28.12
2022-08-19T05:39:28.277Z,22.50
2022-08-19T05:40:28.266Z,22.50
2022-08-19T05:41:28.247Z,22.50
2022-08-19T05:42:28.238Z,22.50
2022-08-19T05:43:28.227Z,22.50
2022-08-19T05:44:28.220Z,22.50
2022-08-19T05:45:28.241Z,22.50
2022-08-19T05:46:28.358Z,22.50
2022-08-19T05:47:28.195Z,22.50
2022-08-19T05:48:28.862Z,22.50
2022-08-19T05:49:28.190Z,22.50
2022-08-19T05:50:28.250Z,22.50
2022-08-19T05:51:29.241Z,22.50
2022-08-19T05:52:28.160Z,22.50
2022-08-19T05:53:28.150Z,22.50
2022-08-19T05:54:28.102Z,28.12
2022-08-19T05:55:28.085Z,28.12
2022-08-19T05:56:28.141Z,33.75
2022-08-19T05:57:28.142Z,33.75
2022-08-19T05:58:28.285Z,39.38
2022-08-19T05:59:28.073Z,39.38
2022-08-19T06:00:28.090Z,45.00
2022-08-19T06:01:28.022Z,39.38
2022-08-19T06:02:28.075Z,39.38
2022-08-19T06:03:28.023Z,39.38
2022-08-19T06:04:28.015Z,39.38
2022-08-19T06:05:28.049Z,45.00
2022-08-19T06:06:28.004Z,45.00
2022-08-19T06:07:28.051Z,50.62
2022-08-19T06:08:34.400Z,50.62
2022-08-19T06:09:28.986Z,45.00
2022-08-19T06:10:27.964Z,45.00
2022-08-19T06:11:27.945Z,45.00
2022-08-19T06:12:27.966Z,45.00
2022-08-19T06:13:27.897Z,45.00
2022-08-19T06:14:28.916Z,50.62
2022-08-19T06:15:27.965Z,50.62
2022-08-19T06:16:27.900Z,56.25
2022-08-19T06:17:27.880Z,56.25
2022-08-19T06:18:27.857Z,61.88
2022-08-19T06:19:27.860Z,61.88
2022-08-19T06:20:54.165Z,61.88
2022-08-19T06:21:28.858Z,67.50
2022-08-19T06:22:27.817Z,67.50
2022-08-19T06:23:27.816Z,73.12
2022-08-19T06:24:27.828Z,78.75
2022-08-19T06:25:30.434Z,78.75
2022-08-19T06:26:27.809Z,78.75
2022-08-19T06:27:27.781Z,73.12
2022-08-19T06:28:27.770Z,67.50
2022-08-19T06:29:27.752Z,67.50
2022-08-19T06:30:27.732Z,61.88
2022-08-19T06:31:27.742Z,61.88
2022-08-19T06:32:27.803Z,61.88
2022-08-19T06:33:27.706Z,61.88
2022-08-19T06:34:27.692Z,56.25
2022-08-19T06:35:27.683Z,56.25
2022-08-19T06:36:27.695Z,50.62
2022-08-19T06:37:27.683Z,45.00
2022-08-19T06:38:27.709Z,45.00
2022-08-19T06:39:27.654Z,45.00
2022-08-19T06:40:27.634Z,45.00
2022-08-19T06:41:27.606Z,45.00
2022-08-19T06:42:27.605Z,45.00
2022-08-19T06:43:28.086Z,45.00
2022-08-19T06:44:30.523Z,50.62
2022-08-19T06:45:35.524Z,50.62
2022-08-19T06:46:28.957Z,56.25
2022-08-19T06:47:28.633Z,61.88
2022-08-19T06:48:29.027Z,61.88
2022-08-19T06:49:27.526Z,61.88
2022-08-19T06:50:28.667Z,61.88
2022-08-19T06:52:27.497Z,56.25
2022-08-19T06:53:27.499Z,56.25
2022-08-19T06:54:30.671Z,56.25
2022-08-19T06:55:27.499Z,61.88
2022-08-19T06:56:28.964Z,61.88
2022-08-19T06:57:27.467Z,61.88
2022-08-19T06:58:29.050Z,61.88
2022-08-19T06:59:27.443Z,67.50
2022-08-19T07:00:28.713Z,61.88
2022-08-19T07:01:27.493Z,61.88
2022-08-19T07:02:27.611Z,67.50
2022-08-19T07:03:27.423Z,78.75
2022-08-19T07:04:28.909Z,78.75
2022-08-19T07:05:27.410Z,78.75
2022-08-19T07:06:43.497Z,78.75
2022-08-19T07:07:28.361Z,78.75
2022-08-19T07:08:29.251Z,84.38
2022-08-19T07:09:27.321Z,95.62
2022-08-19T07:10:27.532Z,95.62
2022-08-19T07:11:27.293Z,95.62
2022-08-19T07:12:27.314Z,101.25
2022-08-19T07:13:27.274Z,106.88
2022-08-19T07:14:27.284Z,112.50
2022-08-19T07:15:27.247Z,112.50
2022-08-19T07:16:28.839Z,106.88
2022-08-19T07:17:27.253Z,95.62
2022-08-19T07:18:27.257Z,95.62
2022-08-19T07:19:27.230Z,90.00
2022-08-19T07:20:28.632Z,90.00
2022-08-19T07:21:27.197Z,95.62
2022-08-19T07:22:27.224Z,90.00
2022-08-19T07:23:27.227Z,84.38
2022-08-19T07:24:27.185Z,84.38
2022-08-19T07:25:31.877Z,84.38
2022-08-19T07:26:28.037Z,78.75
2022-08-19T07:27:27.158Z,90.00
2022-08-19T07:28:27.824Z,95.62
2022-08-19T07:29:28.661Z,90.00
2022-08-19T07:30:27.088Z,73.12
2022-08-19T07:31:27.109Z,56.25
2022-08-19T07:32:27.071Z,45.00
2022-08-19T07:33:27.810Z,45.00
2022-08-19T07:34:27.060Z,45.00
2022-08-19T07:35:27.052Z,45.00
2022-08-19T07:36:27.040Z,45.00
2022-08-19T07:37:31.968Z,50.62
2022-08-19T07:38:28.062Z,50.62
2022-08-19T07:39:26.994Z,45.00
2022-08-19T07:40:26.993Z,39.38
2022-08-19T07:41:26.992Z,39.38
2022-08-19T07:42:27.082Z,39.38
2022-08-19T07:43:34.836Z,39.38
2022-08-19T07:44:27.994Z,39.38
2022-08-19T07:45:26.934Z,39.38
2022-08-19T07:46:27.034Z,39.38
2022-08-19T07:47:49.241Z,33.75
2022-08-19T07:48:27.909Z,33.75
2022-08-19T07:49:27.555Z,33.75
2022-08-19T07:50:26.905Z,33.75
2022-08-19T07:51:36.280Z,33.75
2022-08-19T07:52:27.885Z,33.75
2022-08-19T07:53:26.866Z,33.75
2022-08-19T07:54:26.843Z,33.75
2022-08-19T07:55:41.132Z,33.75
2022-08-19T07:56:27.826Z,28.12
2022-08-19T07:57:26.857Z,28.12
2022-08-19T07:58:26.900Z,22.50
2022-08-19T07:59:26.825Z,22.50
2022-08-19T08:00:26.979Z,22.50
2022-08-19T08:01:26.815Z,22.50
2022-08-19T08:02:26.751Z,22.50
2022-08-19T08:03:26.808Z,28.12
2022-08-19T08:04:26.776Z,28.12
2022-08-19T08:05:26.719Z,28.12
2022-08-19T08:06:26.736Z,28.12
2022-08-19T08:07:31.318Z,22.50
2022-08-19T08:08:27.897Z,22.50
2022-08-19T08:09:26.710Z,22.50
2022-08-19T08:10:26.827Z,22.50
2022-08-19T08:11:26.651Z,28.12
2022-08-19T08:12:35.120Z,33.75
2022-08-19T08:13:27.661Z,45.00
2022-08-19T08:14:29.282Z,50.62
2022-08-19T08:15:27.613Z,45.00
2022-08-19T08:16:26.696Z,39.38
2022-08-19T08:17:31.130Z,39.38
2022-08-19T08:18:30.522Z,45.00
2022-08-19T08:19:26.634Z,45.00
2022-08-19T08:20:26.573Z,45.00
2022-08-19T08:21:26.614Z,45.00
2022-08-19T08:22:26.575Z,39.38
2022-08-19T08:23:27.054Z,45.00
2022-08-19T08:24:28.458Z,39.38
2022-08-19T08:25:26.556Z,33.75
2022-08-19T08:26:26.555Z,33.75
2022-08-19T08:27:26.499Z,33.75
2022-08-19T08:28:29.732Z,39.38
2022-08-19T08:29:26.469Z,45.00
2022-08-19T08:30:27.475Z,56.25
2022-08-19T08:31:26.458Z,61.88
2022-08-19T08:32:26.459Z,56.25
2022-08-19T08:33:32.885Z,56.25
2022-08-19T08:34:27.432Z,67.50
2022-08-19T08:35:26.478Z,73.12
2022-08-19T08:36:26.391Z,73.12
2022-08-19T08:37:26.388Z,73.12
2022-08-19T08:38:26.376Z,73.12
2022-08-19T08:39:26.359Z,84.38
2022-08-19T08:40:26.401Z,90.00
2022-08-19T08:41:26.344Z,84.38
2022-08-19T08:42:26.317Z,78.75
2022-08-19T08:43:26.328Z,78.75
2022-08-19T08:44:26.344Z,73.12
2022-08-19T08:45:26.298Z,78.75
2022-08-19T08:46:32.441Z,78.75
2022-08-19T08:47:27.261Z,78.75
2022-08-19T08:48:26.249Z,90.00
2022-08-19T08:49:26.262Z,129.38
2022-08-19T08:50:26.447Z,135.00
2022-08-19T08:51:26.259Z,146.25
2022-08-19T08:52:31.800Z,157.50
2022-08-19T08:53:31.773Z,146.25
2022-08-19T08:54:27.194Z,157.50
2022-08-19T08:55:26.191Z,157.50
2022-08-19T08:56:26.228Z,151.88
2022-08-19T08:57:26.165Z,146.25
2022-08-19T08:58:26.144Z,163.12
2022-08-19T08:59:26.154Z,168.75
2022-08-19T09:00:26.126Z,163.12
2022-08-19T09:01:30.262Z,146.25
2022-08-19T09:02:26.093Z,146.25
2022-08-19T09:03:26.085Z,135.00
2022-08-19T09:04:26.086Z,135.00
2022-08-19T09:05:26.318Z,146.25
2022-08-19T09:06:26.115Z,151.88
2022-08-19T09:07:35.333Z,163.12
2022-08-19T09:08:27.037Z,168.75
2022-08-19T09:09:28.967Z,168.75
2022-08-19T09:10:26.153Z,151.88
2022-08-19T09:11:42.964Z,140.62
2022-08-19T09:12:27.180Z,129.38
2022-08-19T09:13:25.989Z,123.75
2022-08-19T09:14:49.436Z,140.62
2022-08-19T09:15:29.962Z,151.88
2022-08-19T09:16:27.944Z,140.62
2022-08-19T09:17:25.951Z,135.00
2022-08-19T09:18:25.927Z,140.62
2022-08-19T09:19:25.911Z,151.88
2022-08-19T09:20:26.269Z,151.88
2022-08-19T09:21:33.475Z,146.25
2022-08-19T09:22:27.199Z,140.62
2022-08-19T09:23:26.883Z,140.62
2022-08-19T09:24:25.862Z,140.62
2022-08-19T09:25:29.548Z,140.62
2022-08-19T09:26:25.832Z,140.62
2022-08-19T09:27:42.539Z,140.62
2022-08-19T09:28:27.537Z,140.62
2022-08-19T09:29:25.814Z,146.25
2022-08-19T09:30:25.784Z,146.25
2022-08-19T09:31:25.773Z,151.88
2022-08-19T09:32:26.234Z,140.62
2022-08-19T09:33:25.785Z,151.88
2022-08-19T09:34:25.744Z,163.12
2022-08-19T09:35:25.745Z,157.50
2022-08-19T09:36:34.500Z,135.00
2022-08-19T09:37:26.716Z,135.00
2022-08-19T09:38:25.686Z,140.62
2022-08-19T09:39:25.707Z,163.12
2022-08-19T09:40:26.728Z,174.38
2022-08-19T09:41:25.708Z,174.38
2022-08-19T09:42:30.559Z,174.38
2022-08-19T09:43:33.315Z,174.38
2022-08-19T09:44:26.647Z,168.75
2022-08-19T09:45:25.666Z,163.12
2022-08-19T09:46:25.668Z,163.12
2022-08-19T09:47:25.620Z,163.12
2022-08-19T09:48:25.599Z,168.75
2022-08-19T09:49:25.590Z,168.75
2022-08-19T09:50:25.582Z,163.12
2022-08-19T09:51:25.570Z,163.12
2022-08-19T09:52:25.589Z,168.75
2022-08-19T09:53:26.540Z,168.75
2022-08-19T09:54:25.567Z,163.12
2022-08-19T09:55:31.488Z,163.12
2022-08-19T09:56:26.521Z,157.50
2022-08-19T09:57:25.526Z,146.25
2022-08-19T09:58:26.797Z,151.88
2022-08-19T09:59:25.492Z,146.25
2022-08-19T10:00:25.475Z,140.62
2022-08-19T10:01:25.543Z,140.62
2022-08-19T10:02:25.453Z,146.25
2022-08-19T10:03:29.963Z,146.25
2022-08-19T10:04:26.429Z,146.25
2022-08-19T10:05:26.920Z,151.88
2022-08-19T10:06:44.018Z,151.88
2022-08-19T10:07:28.945Z,157.50
2022-08-19T10:08:26.618Z,157.50
2022-08-19T10:09:33.881Z,157.50
2022-08-19T10:10:26.360Z,140.62
2022-08-19T10:11:27.895Z,129.38
2022-08-19T10:12:26.357Z,140.62
2022-08-19T10:13:25.340Z,146.25
2022-08-19T10:14:25.316Z,151.88
2022-08-19T10:15:29.211Z,151.88
2022-08-19T10:16:25.985Z,151.88
2022-08-19T10:17:31.482Z,163.12
2022-08-19T10:18:26.399Z,157.50
2022-08-19T10:19:26.241Z,151.88
2022-08-19T10:20:25.248Z,146.25
2022-08-19T10:21:25.547Z,157.50
2022-08-19T10:22:25.613Z,185.62
2022-08-19T10:23:25.246Z,196.88
2022-08-19T10:24:25.283Z,180.00
2022-08-19T10:25:25.191Z,174.38
2022-08-19T10:26:26.525Z,191.25
2022-08-19T10:27:26.514Z,213.75
2022-08-19T10:28:25.181Z,196.88
2022-08-19T10:29:32.778Z,191.25
2022-08-19T10:30:26.159Z,208.12
2022-08-19T10:32:00.877Z,191.25
2022-08-19T10:32:34.479Z,191.25
2022-08-19T10:33:26.204Z,213.75
2022-08-19T10:34:28.394Z,247.50
2022-08-19T10:35:25.151Z,270.00
2022-08-19T10:36:25.093Z,298.12
2022-08-19T10:37:29.082Z,303.75
2022-08-19T10:38:31.407Z,315.00
2022-08-19T10:39:26.064Z,343.12
2022-08-19T10:40:25.119Z,371.25
2022-08-19T10:41:25.065Z,365.62
2022-08-19T10:42:25.056Z,337.50
2022-08-19T10:43:25.027Z,331.88
2022-08-19T10:44:25.062Z,315.00
2022-08-19T10:45:26.026Z,303.75
2022-08-19T10:46:24.991Z,281.25
2022-08-19T10:47:26.102Z,270.00
2022-08-19T10:48:25.961Z,253.12
2022-08-19T10:49:24.950Z,225.00
2022-08-19T10:50:28.677Z,196.88
2022-08-19T10:51:25.399Z,180.00
2022-08-19T10:52:32.342Z,168.75
2022-08-19T10:53:25.912Z,157.50
2022-08-19T10:54:33.238Z,146.25
2022-08-19T10:55:29.302Z,151.88
2022-08-19T10:56:24.900Z,146.25
2022-08-19T10:57:27.865Z,151.88
2022-08-19T10:58:25.911Z,157.50
2022-08-19T10:59:26.661Z,157.50
2022-08-19T11:00:24.823Z,157.50
2022-08-19T11:01:24.852Z,168.75
2022-08-19T11:02:24.852Z,168.75
2022-08-19T11:03:24.870Z,157.50
2022-08-19T11:04:28.936Z,151.88
2022-08-19T11:05:24.782Z,157.50
2022-08-19T11:06:24.774Z,185.62
2022-08-19T11:07:24.764Z,225.00
2022-08-19T11:08:24.791Z,275.62
2022-08-19T11:09:24.730Z,309.38
2022-08-19T11:10:24.722Z,343.12
2022-08-19T11:11:24.716Z,393.75
2022-08-19T11:12:24.706Z,405.00
2022-08-19T11:13:24.787Z,382.50
2022-08-19T11:14:24.699Z,354.38
2022-08-19T11:15:24.696Z,337.50
2022-08-19T11:16:24.666Z,292.50
2022-08-19T11:17:24.644Z,264.38
2022-08-19T11:18:24.647Z,264.38
2022-08-19T11:19:24.650Z,241.88
2022-08-19T11:20:24.682Z,230.62
2022-08-19T11:21:24.608Z,236.25
2022-08-19T11:22:27.766Z,236.25
2022-08-19T11:23:25.578Z,236.25
2022-08-19T11:24:24.589Z,264.38
2022-08-19T11:25:24.578Z,286.88
2022-08-19T11:26:24.569Z,298.12
2022-08-19T11:27:24.559Z,292.50
2022-08-19T11:28:24.560Z,281.25
2022-08-19T11:29:24.562Z,264.38
2022-08-19T11:30:24.519Z,247.50
2022-08-19T11:31:24.812Z,241.88
2022-08-19T11:32:24.522Z,236.25
2022-08-19T11:33:24.492Z,230.62
2022-08-19T11:34:24.472Z,230.62
2022-08-19T11:35:24.443Z,225.00
2022-08-19T11:36:24.473Z,219.38
2022-08-19T11:37:24.484Z,219.38
2022-08-19T11:38:24.429Z,219.38
2022-08-19T11:39:24.403Z,213.75
2022-08-19T11:40:24.384Z,213.75
2022-08-19T11:41:24.434Z,236.25
2022-08-19T11:42:24.444Z,258.75
2022-08-19T11:43:24.375Z,275.62
2022-08-19T11:44:24.365Z,292.50
2022-08-19T11:45:24.389Z,298.12
2022-08-19T11:46:24.347Z,286.88
2022-08-19T11:47:24.326Z,286.88
2022-08-19T11:48:24.402Z,281.25
2022-08-19T11:49:24.301Z,264.38
2022-08-19T11:50:24.309Z,236.25
2022-08-19T11:51:24.328Z,213.75
2022-08-19T11:52:24.345Z,202.50
2022-08-19T11:53:24.287Z,191.25
2022-08-19T11:54:24.257Z,168.75
2022-08-19T11:55:24.238Z,151.88
2022-08-19T11:56:24.320Z,140.62
2022-08-19T11:57:24.339Z,135.00
2022-08-19T11:58:24.229Z,129.38
2022-08-19T11:59:24.231Z,118.12
2022-08-19T12:00:24.179Z,118.12
2022-08-19T12:01:24.173Z,123.75
2022-08-19T12:02:24.182Z,129.38
2022-08-19T12:03:24.165Z,140.62
2022-08-19T12:04:24.299Z,146.25
2022-08-19T12:05:24.186Z,163.12
2022-08-19T12:06:24.121Z,180.00
2022-08-19T12:07:24.126Z,185.62
2022-08-19T12:08:24.113Z,180.00
2022-08-19T12:09:24.163Z,174.38
2022-08-19T12:10:26.398Z,163.12
2022-08-19T12:11:24.054Z,168.75
2022-08-19T12:12:24.090Z,180.00
2022-08-19T12:13:24.065Z,174.38
2022-08-19T12:14:24.027Z,157.50
2022-08-19T12:15:24.015Z,140.62
2022-08-19T12:16:24.015Z,118.12
2022-08-19T12:17:24.038Z,106.88
2022-08-19T12:18:23.977Z,95.62
2022-08-19T12:19:23.998Z,90.00
2022-08-19T12:20:23.974Z,84.38
2022-08-19T12:21:23.979Z,84.38
2022-08-19T12:22:23.947Z,78.75
2022-08-19T12:23:23.968Z,73.12
2022-08-19T12:24:24.103Z,78.75
2022-08-19T12:25:23.947Z,78.75
2022-08-19T12:26:23.898Z,78.75
2022-08-19T12:27:35.781Z,78.75
2022-08-19T12:28:24.929Z,84.38
2022-08-19T12:29:24.348Z,95.62
2022-08-19T12:30:23.890Z,95.62
2022-08-19T12:31:23.864Z,101.25
2022-08-19T12:32:23.881Z,118.12
2022-08-19T12:33:23.860Z,140.62
2022-08-19T12:34:23.821Z,151.88
2022-08-19T12:35:23.830Z,163.12
2022-08-19T12:36:23.793Z,180.00
2022-08-19T12:37:23.834Z,191.25
2022-08-19T12:38:23.862Z,202.50
2022-08-19T12:39:23.763Z,202.50
2022-08-19T12:40:23.784Z,196.88
2022-08-19T12:41:23.744Z,213.75
2022-08-19T12:42:23.734Z,213.75
2022-08-19T12:43:23.745Z,230.62
2022-08-19T12:44:29.111Z,270.00
2022-08-19T12:45:24.685Z,303.75
2022-08-19T12:46:23.781Z,320.62
2022-08-19T12:47:23.692Z,315.00
2022-08-19T12:48:33.558Z,298.12
2022-08-19T12:49:52.301Z,281.25
2022-08-19T12:50:24.685Z,275.62
2022-08-19T12:51:23.628Z,275.62
2022-08-19T12:52:23.853Z,275.62
2022-08-19T12:53:23.646Z,264.38
2022-08-19T12:54:23.611Z,247.50
2022-08-19T12:55:23.619Z,219.38